Time;durP1;ratioP1;P1;durP2;ratioP2;P2;SDS_P1;SDS_P2;PMS_P1;PMS_P2;Temp;Humidity;BMP_temperature;BMP_pressure;BME280_temperature;BME280_humidity;BME280_pressure;Samples;Min_cycle;Max_cycle;Signal;HPM_P1;HPM_P2
2023/07/14 00:00:08;;;;;;;5.73;3.67;;;17.90;99.90;;;;;;4997741;28;20462;-71
2023/07/14 00:02:35;;;;;;;4.87;3.33;;;17.90;99.90;;;;;;4990495;28;20471;-72
2023/07/14 00:05:01;;;;;;;4.10;3.63;;;17.90;99.90;;;;;;4996043;28;20445;-71
2023/07/14 00:07:27;;;;;;;3.53;3.23;;;17.80;99.90;;;;;;4994332;28;20517;-72
2023/07/14 00:09:52;;;;;;;6.00;3.80;;;17.90;99.90;;;;;;4997230;28;20888;-72
2023/07/14 00:12:18;;;;;;;5.77;3.27;;;17.90;99.90;;;;;;5005099;28;21965;-72
2023/07/14 00:14:44;;;;;;;5.67;3.70;;;17.90;99.90;;;;;;4992977;28;20645;-72
2023/07/14 00:17:13;;;;;;;3.90;3.60;;;17.80;99.90;;;;;;4994259;28;20183;-72
2023/07/14 00:19:39;;;;;;;4.70;4.30;;;17.60;99.90;;;;;;5000138;28;20951;-71
2023/07/14 00:22:14;;;;;;;6.90;3.60;;;17.60;99.90;;;;;;5010061;28;20508;-71
2023/07/14 00:24:43;;;;;;;8.33;3.30;;;17.60;99.90;;;;;;4997559;28;20217;-72
2023/07/14 00:27:18;;;;;;;5.60;3.80;;;17.60;99.90;;;;;;5001819;28;20434;-72
2023/07/14 00:29:45;;;;;;;3.33;3.03;;;17.60;99.90;;;;;;4974258;28;20438;-72
2023/07/14 00:32:15;;;;;;;3.67;3.20;;;17.60;99.90;;;;;;5002785;28;20469;-71
2023/07/14 00:34:41;;;;;;;3.87;3.23;;;17.50;99.90;;;;;;5000069;28;20434;-71
2023/07/14 00:37:07;;;;;;;3.67;3.33;;;17.40;99.90;;;;;;5003938;28;20442;-73
2023/07/14 00:39:33;;;;;;;4.33;3.43;;;17.40;99.90;;;;;;4991698;28;20493;-73
2023/07/14 00:41:58;;;;;;;3.20;3.00;;;17.40;99.90;;;;;;4999470;28;20184;-73
2023/07/14 00:44:24;;;;;;;3.90;3.60;;;17.40;99.90;;;;;;4993973;28;20191;-73
2023/07/14 00:46:50;;;;;;;4.90;3.53;;;17.40;99.90;;;;;;4996333;28;20187;-72
2023/07/14 00:49:31;;;;;;;3.70;3.33;;;17.50;99.90;;;;;;4998332;28;20438;-72
2023/07/14 00:52:04;;;;;;;3.23;2.87;;;17.60;99.90;;;;;;5002220;28;21004;-73
2023/07/14 00:54:30;;;;;;;4.87;3.07;;;17.60;99.90;;;;;;4992894;28;20535;-73
2023/07/14 00:56:56;;;;;;;3.90;3.53;;;17.70;99.90;;;;;;5006182;28;20437;-73
2023/07/14 00:59:33;;;;;;;3.63;3.33;;;17.70;99.90;;;;;;4996342;28;20278;-73
2023/07/14 01:02:25;;;;;;;3.40;3.10;;;17.60;99.90;;;;;;4997908;28;20963;-73
2023/07/14 01:04:58;;;;;;;3.80;2.80;;;17.50;99.90;;;;;;4993342;28;20517;-71
2023/07/14 01:07:30;;;;;;;4.20;3.33;;;17.50;99.90;;;;;;5004243;28;20567;-72
2023/07/14 01:09:58;;;;;;;4.60;3.20;;;17.50;99.90;;;;;;4988374;28;20557;-72
2023/07/14 01:12:25;;;;;;;4.07;2.73;;;17.40;99.90;;;;;;4993512;28;20443;-73
2023/07/14 01:14:54;;;;;;;14.40;5.20;;;17.30;99.90;;;;;;5001480;28;20430;-73
2023/07/14 01:17:21;;;;;;;3.97;3.50;;;17.30;99.90;;;;;;4976394;28;20463;-73
2023/07/14 01:20:01;;;;;;;5.43;3.60;;;17.30;99.90;;;;;;4992661;28;20462;-73
2023/07/14 01:22:30;;;;;;;4.33;3.63;;;17.30;99.90;;;;;;4993457;28;20462;-72
2023/07/14 01:25:20;;;;;;;4.80;4.00;;;17.30;99.90;;;;;;4993903;28;20434;-73
2023/07/14 01:27:46;;;;;;;4.30;3.20;;;17.30;99.90;;;;;;4988341;28;20434;-72
2023/07/14 01:30:12;;;;;;;6.03;3.00;;;17.30;99.90;;;;;;4989748;28;20461;-73
2023/07/14 01:32:41;;;;;;;3.50;3.20;;;17.30;99.90;;;;;;4991119;28;20188;-73
2023/07/14 01:35:07;;;;;;;3.10;2.90;;;17.20;99.90;;;;;;5000872;28;20449;-73
2023/07/14 01:37:35;;;;;;;3.10;2.80;;;17.10;99.90;;;;;;5000074;28;20442;-72
2023/07/14 01:40:08;;;;;;;4.80;4.10;;;17.00;99.90;;;;;;4993312;28;20549;-72
2023/07/14 01:42:34;;;;;;;8.63;3.20;;;16.90;99.90;;;;;;4993488;28;20449;-73
2023/07/14 01:45:00;;;;;;;3.33;3.03;;;16.90;99.90;;;;;;4993194;28;20940;-73
2023/07/14 01:47:28;;;;;;;4.33;3.07;;;16.90;99.90;;;;;;4984604;28;20180;-72
2023/07/14 01:49:54;;;;;;;3.13;2.93;;;16.90;99.90;;;;;;4995941;28;20494;-73
2023/07/14 01:52:25;;;;;;;3.07;2.70;;;16.80;99.90;;;;;;4985399;28;20447;-73
2023/07/14 01:54:56;;;;;;;8.10;3.60;;;16.80;99.90;;;;;;4997204;28;20534;-73
2023/07/14 01:57:27;;;;;;;3.20;2.80;;;16.80;99.90;;;;;;5001012;28;20446;-73
2023/07/14 01:59:58;;;;;;;4.77;3.50;;;16.80;99.90;;;;;;4992224;28;21047;-72
2023/07/14 02:02:34;;;;;;;4.50;4.20;;;16.70;99.90;;;;;;4997671;28;20446;-73
2023/07/14 02:05:27;;;;;;;3.77;3.43;;;16.60;99.90;;;;;;4992903;28;20852;-73
2023/07/14 02:07:55;;;;;;;3.37;3.07;;;16.60;99.90;;;;;;4987335;28;20467;-72
2023/07/14 02:10:21;;;;;;;3.83;2.73;;;16.60;99.90;;;;;;4993408;28;20493;-72
2023/07/14 02:12:49;;;;;;;7.03;3.03;;;16.70;99.90;;;;;;5004298;28;20469;-72
2023/07/14 02:15:18;;;;;;;4.43;3.60;;;16.70;99.90;;;;;;5004161;28;20628;-71
2023/07/14 02:17:45;;;;;;;3.47;3.17;;;16.60;99.90;;;;;;4994894;28;20455;-71
2023/07/14 02:20:33;;;;;;;4.27;3.10;;;16.50;99.90;;;;;;4992684;28;20458;-72
2023/07/14 02:23:01;;;;;;;3.20;2.93;;;16.50;99.90;;;;;;5007496;28;20520;-71
2023/07/14 02:25:33;;;;;;;4.10;2.60;;;16.40;99.90;;;;;;4993868;28;20855;-72
2023/07/14 02:27:58;;;;;;;3.77;3.47;;;16.40;99.90;;;;;;4989571;28;20445;-72
2023/07/14 02:30:26;;;;;;;3.03;2.83;;;16.40;99.90;;;;;;4990636;28;20462;-71
2023/07/14 02:33:07;;;;;;;5.17;2.80;;;16.40;99.90;;;;;;4992946;28;20187;-72
2023/07/14 02:35:47;;;;;;;11.50;3.77;;;16.30;99.90;;;;;;4992481;28;20856;-72
2023/07/14 02:38:15;;;;;;;3.13;2.90;;;16.30;99.90;;;;;;4989851;28;20438;-72
2023/07/14 02:40:53;;;;;;;3.73;3.27;;;16.30;99.90;;;;;;4999794;28;20509;-72
2023/07/14 02:43:20;;;;;;;4.53;3.37;;;16.30;99.90;;;;;;5001966;28;20430;-71
2023/07/14 02:46:00;;;;;;;6.90;3.20;;;16.30;99.90;;;;;;5002139;28;20496;-71
2023/07/14 02:48:37;;;;;;;2.97;2.70;;;16.30;99.90;;;;;;4995804;28;20438;-72
2023/07/14 02:51:02;;;;;;;3.70;3.00;;;16.30;99.90;;;;;;4990672;28;20458;-72
2023/07/14 02:53:28;;;;;;;4.30;3.23;;;16.20;99.90;;;;;;4993669;28;20440;-72
2023/07/14 02:55:54;;;;;;;5.53;3.90;;;16.20;99.90;;;;;;4992230;28;20194;-72
2023/07/14 02:58:19;;;;;;;3.63;2.73;;;16.20;99.90;;;;;;5004883;28;20181;-72
2023/07/14 03:00:45;;;;;;;3.77;3.47;;;16.20;99.90;;;;;;4993019;28;20195;-72
2023/07/14 03:03:11;;;;;;;3.90;2.73;;;16.20;99.90;;;;;;4998352;28;20450;-71
2023/07/14 03:05:37;;;;;;;3.03;2.73;;;16.20;99.90;;;;;;5004498;28;20189;-72
2023/07/14 03:08:07;;;;;;;5.23;3.30;;;16.30;99.90;;;;;;5007649;28;20437;-72
2023/07/14 03:10:33;;;;;;;4.07;3.47;;;16.30;99.90;;;;;;4993314;28;20301;-72
2023/07/14 03:13:00;;;;;;;3.90;3.60;;;16.20;99.90;;;;;;4996738;28;20453;-72
2023/07/14 03:15:25;;;;;;;4.10;3.70;;;16.10;99.90;;;;;;4995712;28;20437;-72
2023/07/14 03:17:51;;;;;;;4.10;3.33;;;16.10;99.90;;;;;;4999077;28;20191;-72
2023/07/14 03:20:17;;;;;;;3.60;3.30;;;16.10;99.90;;;;;;4991502;28;20215;-72
2023/07/14 03:22:43;;;;;;;3.30;3.00;;;16.10;99.90;;;;;;4988997;28;20512;-71
2023/07/14 03:25:09;;;;;;;5.60;3.17;;;16.10;99.90;;;;;;4989950;28;20214;-72
2023/07/14 03:27:34;;;;;;;3.00;2.80;;;16.00;99.90;;;;;;4999740;28;20242;-72
2023/07/14 03:30:00;;;;;;;4.13;3.50;;;16.10;99.90;;;;;;4999580;28;20466;-72
2023/07/14 03:32:25;;;;;;;3.97;3.40;;;16.10;99.90;;;;;;4989223;28;20194;-71
2023/07/14 03:34:51;;;;;;;3.70;2.83;;;16.10;99.90;;;;;;4989734;28;20188;-71
2023/07/14 03:37:16;;;;;;;5.83;3.77;;;16.10;99.90;;;;;;4989739;28;20191;-72
2023/07/14 03:39:42;;;;;;;6.23;3.17;;;16.00;99.90;;;;;;4988235;28;20290;-71
2023/07/14 03:42:07;;;;;;;5.73;3.40;;;16.20;99.90;;;;;;4991670;28;20314;-72
2023/07/14 03:44:34;;;;;;;5.97;3.67;;;16.20;99.90;;;;;;4995333;28;20198;-71
2023/07/14 03:47:02;;;;;;;6.23;3.27;;;16.20;99.90;;;;;;4991704;28;20723;-71
2023/07/14 03:49:28;;;;;;;4.57;3.43;;;16.20;99.90;;;;;;4987189;28;20526;-72
2023/07/14 03:51:54;;;;;;;6.47;3.30;;;16.10;99.90;;;;;;4988859;28;20449;-72
2023/07/14 03:54:19;;;;;;;4.23;3.83;;;16.10;99.90;;;;;;4989262;28;20830;-72
2023/07/14 03:56:45;;;;;;;6.40;3.60;;;16.00;99.90;;;;;;4990976;28;20199;-72
2023/07/14 03:59:13;;;;;;;8.67;3.40;;;15.90;99.90;;;;;;5006013;28;20222;-72
2023/07/14 04:01:38;;;;;;;6.13;3.10;;;16.00;99.90;;;;;;4994391;28;20207;-72
2023/07/14 04:04:04;;;;;;;6.10;3.77;;;16.00;99.90;;;;;;4985318;28;21196;-72
2023/07/14 04:06:29;;;;;;;5.13;3.13;;;16.00;99.90;;;;;;5003421;28;20612;-72
2023/07/14 04:08:58;;;;;;;6.63;6.03;;;16.10;99.90;;;;;;4998466;28;20188;-72
2023/07/14 04:11:24;;;;;;;4.27;3.87;;;16.10;99.90;;;;;;4985656;28;20216;-72
2023/07/14 04:13:49;;;;;;;3.83;3.47;;;16.20;99.90;;;;;;4987632;28;20469;-72
2023/07/14 04:16:15;;;;;;;3.90;3.50;;;16.30;99.90;;;;;;4988860;28;20295;-72
2023/07/14 04:18:40;;;;;;;4.70;3.50;;;16.40;99.90;;;;;;4990854;28;20211;-71
2023/07/14 04:21:09;;;;;;;4.40;3.17;;;16.60;99.90;;;;;;4999765;28;20590;-72
2023/07/14 04:23:35;;;;;;;5.10;4.00;;;16.70;99.90;;;;;;5008578;28;20179;-72
2023/07/14 04:26:02;;;;;;;4.53;3.20;;;16.90;99.90;;;;;;4996527;28;20446;-72
2023/07/14 04:28:28;;;;;;;4.00;3.40;;;17.10;99.90;;;;;;4986148;28;20215;-71
2023/07/14 04:30:58;;;;;;;3.77;3.30;;;17.20;99.90;;;;;;4990961;28;20467;-72
2023/07/14 04:33:24;;;;;;;4.10;3.70;;;17.20;99.90;;;;;;4991479;28;20946;-71
2023/07/14 04:35:51;;;;;;;3.67;3.40;;;17.30;99.90;;;;;;4989931;28;20443;-72
2023/07/14 04:38:17;;;;;;;7.40;3.60;;;17.40;99.90;;;;;;4990004;28;20437;-72
2023/07/14 04:40:43;;;;;;;4.23;3.70;;;17.50;99.90;;;;;;4987866;28;20612;-72
2023/07/14 04:43:09;;;;;;;5.70;3.70;;;17.50;99.90;;;;;;5003619;28;20438;-72
2023/07/14 04:45:38;;;;;;;7.33;3.93;;;17.50;99.90;;;;;;5002073;28;20445;-72
2023/07/14 04:48:06;;;;;;;3.63;3.40;;;17.60;99.90;;;;;;5002147;28;20192;-72
2023/07/14 04:50:33;;;;;;;4.33;3.93;;;17.70;99.90;;;;;;4998752;28;20600;-72
2023/07/14 04:52:59;;;;;;;6.87;4.73;;;17.80;99.90;;;;;;4995215;28;20928;-72
2023/07/14 04:55:29;;;;;;;4.67;4.27;;;17.90;99.90;;;;;;4993464;28;20451;-72
2023/07/14 04:57:54;;;;;;;4.93;4.20;;;18.00;99.90;;;;;;4992982;28;20199;-72
2023/07/14 05:00:20;;;;;;;11.00;4.30;;;18.20;99.90;;;;;;5000754;28;20479;-73
2023/07/14 05:02:46;;;;;;;4.43;4.03;;;18.40;99.90;;;;;;4990761;28;20180;-72
2023/07/14 05:05:20;;;;;;;4.47;3.40;;;18.40;99.90;;;;;;4990767;28;20460;-71
2023/07/14 05:07:48;;;;;;;10.47;3.73;;;18.50;99.90;;;;;;4996741;28;20227;-72
2023/07/14 05:10:14;;;;;;;4.63;4.20;;;18.50;99.90;;;;;;4993137;28;20474;-72
2023/07/14 05:12:39;;;;;;;5.77;3.90;;;18.60;99.90;;;;;;4991567;28;20535;-72
2023/07/14 05:15:10;;;;;;;4.17;3.77;;;18.70;99.90;;;;;;4997272;28;20192;-72
2023/07/14 05:17:37;;;;;;;6.30;4.97;;;18.70;99.90;;;;;;4989933;28;20563;-72
2023/07/14 05:20:05;;;;;;;8.83;4.90;;;18.80;99.90;;;;;;4993390;28;20474;-72
2023/07/14 05:22:31;;;;;;;4.03;3.63;;;18.80;99.90;;;;;;4992029;28;20474;-72
2023/07/14 05:24:57;;;;;;;5.77;4.23;;;18.90;99.90;;;;;;4991591;28;20532;-72
2023/07/14 05:27:22;;;;;;;8.97;4.30;;;19.00;99.90;;;;;;4993040;28;20305;-72
2023/07/14 05:29:49;;;;;;;4.20;3.70;;;19.20;99.90;;;;;;4996308;28;20215;-72
2023/07/14 05:32:16;;;;;;;5.50;4.40;;;19.30;99.90;;;;;;5006153;28;20241;-72
2023/07/14 05:34:42;;;;;;;4.27;3.83;;;19.40;99.90;;;;;;4990371;28;20446;-72
2023/07/14 05:37:08;;;;;;;4.83;4.43;;;19.40;99.90;;;;;;4992548;28;20445;-72
2023/07/14 05:39:33;;;;;;;4.97;4.00;;;19.60;99.90;;;;;;4990689;28;20219;-72
2023/07/14 05:41:59;;;;;;;4.50;4.20;;;19.70;99.90;;;;;;4987205;28;20701;-72
2023/07/14 05:44:24;;;;;;;4.07;3.70;;;19.70;99.90;;;;;;4994133;28;20189;-74
2023/07/14 05:46:50;;;;;;;5.97;4.47;;;19.70;99.90;;;;;;5001913;28;20243;-72
2023/07/14 05:49:16;;;;;;;4.97;3.47;;;19.90;99.90;;;;;;5008278;28;20194;-72
2023/07/14 05:51:42;;;;;;;7.07;4.87;;;19.90;99.90;;;;;;5004008;28;20200;-72
2023/07/14 05:54:08;;;;;;;8.70;3.90;;;20.10;99.90;;;;;;4986046;28;20219;-72
2023/07/14 05:56:34;;;;;;;4.37;3.70;;;20.20;99.90;;;;;;4990785;28;20434;-72
2023/07/14 05:59:00;;;;;;;4.03;3.73;;;20.40;99.90;;;;;;4988690;28;20207;-72
2023/07/14 06:01:25;;;;;;;6.17;3.53;;;20.30;99.90;;;;;;4992068;28;20502;-72
2023/07/14 06:03:51;;;;;;;6.13;5.37;;;20.40;99.90;;;;;;4990237;28;20196;-72
2023/07/14 06:06:16;;;;;;;4.73;4.17;;;20.30;99.90;;;;;;4998602;28;20622;-72
2023/07/14 06:08:42;;;;;;;4.10;3.33;;;20.40;99.90;;;;;;4998670;28;20183;-72
2023/07/14 06:11:08;;;;;;;4.13;3.73;;;20.40;99.90;;;;;;5000794;28;20207;-72
2023/07/14 06:13:33;;;;;;;4.53;3.67;;;20.40;99.90;;;;;;4992086;28;20210;-71
2023/07/14 06:16:00;;;;;;;5.23;3.73;;;20.30;99.90;;;;;;4989274;28;20191;-72
2023/07/14 06:18:26;;;;;;;5.40;3.00;;;20.00;99.90;;;;;;4989977;28;20713;-72
2023/07/14 06:20:51;;;;;;;6.27;3.60;;;19.80;99.90;;;;;;4992969;28;20541;-72
2023/07/14 06:23:17;;;;;;;4.53;3.43;;;19.90;99.90;;;;;;4992841;28;20661;-72
2023/07/14 06:25:43;;;;;;;5.53;3.50;;;20.00;99.90;;;;;;4990931;28;20671;-72
2023/07/14 06:28:09;;;;;;;4.70;3.70;;;20.20;99.90;;;;;;4991959;28;20439;-72
2023/07/14 06:30:36;;;;;;;6.20;3.97;;;20.40;99.90;;;;;;4996786;28;20297;-72
2023/07/14 06:33:02;;;;;;;3.40;3.17;;;20.40;99.90;;;;;;4993368;28;20222;-70
2023/07/14 06:35:27;;;;;;;3.73;3.43;;;20.60;99.90;;;;;;4993619;28;22457;-69
2023/07/14 06:37:57;;;;;;;5.07;4.20;;;20.90;99.90;;;;;;4989658;28;20187;-70
2023/07/14 06:40:24;;;;;;;3.40;3.10;;;21.30;99.90;;;;;;4985890;28;20307;-70
2023/07/14 06:42:49;;;;;;;5.80;3.67;;;21.60;99.90;;;;;;4988824;28;20971;-69
2023/07/14 06:45:15;;;;;;;5.07;3.90;;;21.50;99.90;;;;;;4987379;28;20439;-70
2023/07/14 06:47:41;;;;;;;5.50;3.93;;;21.50;99.90;;;;;;5002122;28;20194;-70
2023/07/14 06:50:07;;;;;;;5.30;2.90;;;21.90;99.90;;;;;;4998546;28;20477;-71
2023/07/14 06:52:37;;;;;;;5.20;3.87;;;22.20;99.90;;;;;;4989267;28;20187;-71
2023/07/14 06:55:04;;;;;;;8.20;3.40;;;22.50;99.90;;;;;;4989019;28;20286;-70
2023/07/14 06:57:30;;;;;;;3.80;3.37;;;22.50;99.90;;;;;;4988301;28;20509;-71
2023/07/14 06:59:55;;;;;;;8.03;5.97;;;22.40;99.90;;;;;;4997745;28;20467;-71
2023/07/14 07:02:21;;;;;;;6.67;4.67;;;22.60;99.90;;;;;;4989642;28;20238;-71
2023/07/14 07:04:46;;;;;;;5.17;3.67;;;23.20;98.80;;;;;;4991728;28;20184;-71
2023/07/14 07:07:12;;;;;;;4.27;3.97;;;23.60;96.90;;;;;;4990198;28;20180;-76
2023/07/14 07:09:37;;;;;;;4.17;3.40;;;23.80;94.70;;;;;;4990391;28;20188;-77
2023/07/14 07:12:04;;;;;;;6.33;3.80;;;24.00;95.00;;;;;;4994984;28;20183;-77
2023/07/14 07:14:30;;;;;;;4.57;3.47;;;24.00;94.50;;;;;;4993736;28;20203;-77
2023/07/14 07:16:56;;;;;;;8.37;2.97;;;24.00;94.80;;;;;;4991662;28;20470;-77
2023/07/14 07:19:21;;;;;;;3.80;3.40;;;23.90;93.60;;;;;;4994157;28;20210;-77
2023/07/14 07:21:47;;;;;;;4.33;3.60;;;23.90;92.90;;;;;;4990068;28;20204;-78
2023/07/14 07:24:13;;;;;;;7.30;3.37;;;23.90;92.90;;;;;;4993570;28;20187;-77
2023/07/14 07:26:38;;;;;;;5.00;3.03;;;24.20;92.90;;;;;;5000774;28;20183;-78
2023/07/14 07:29:04;;;;;;;6.50;2.67;;;24.40;91.30;;;;;;4990793;28;20190;-78
2023/07/14 07:31:29;;;;;;;7.03;4.30;;;24.70;90.50;;;;;;4988835;28;20216;-78
2023/07/14 07:33:55;;;;;;;4.13;3.17;;;24.90;86.10;;;;;;4988880;28;20206;-77
2023/07/14 07:36:22;;;;;;;3.10;2.47;;;25.00;84.50;;;;;;4992642;28;20266;-77
2023/07/14 07:38:50;;;;;;;3.67;2.90;;;24.90;83.10;;;;;;4995765;28;20210;-77
2023/07/14 07:41:19;;;;;;;8.03;2.90;;;25.00;81.70;;;;;;4993518;28;20458;-70
2023/07/14 07:43:44;;;;;;;4.80;2.97;;;25.20;79.90;;;;;;4988478;28;20443;-70
2023/07/14 07:46:10;;;;;;;4.60;2.93;;;25.00;78.80;;;;;;4990060;28;20442;-68
2023/07/14 07:48:36;;;;;;;4.00;2.77;;;25.00;80.00;;;;;;4990748;28;20202;-69
2023/07/14 07:51:04;;;;;;;4.00;2.57;;;24.90;79.20;;;;;;4990241;28;20995;-69
2023/07/14 07:53:30;;;;;;;2.80;2.60;;;25.20;78.30;;;;;;4993942;28;20195;-69
2023/07/14 07:55:58;;;;;;;2.90;2.37;;;25.20;74.50;;;;;;4994048;28;20470;-69
2023/07/14 07:58:26;;;;;;;2.80;2.20;;;25.10;73.80;;;;;;4985708;28;20452;-69
2023/07/14 08:00:57;;;;;;;3.17;2.30;;;25.00;72.00;;;;;;4988258;28;20453;-68
2023/07/14 08:03:23;;;;;;;2.50;2.30;;;24.90;73.30;;;;;;4993815;28;20429;-68
2023/07/14 08:05:49;;;;;;;2.77;2.30;;;25.00;72.70;;;;;;4989529;28;20431;-69
2023/07/14 08:08:15;;;;;;;2.73;2.47;;;25.30;72.30;;;;;;4994146;28;20589;-68
2023/07/14 08:10:45;;;;;;;4.63;2.20;;;25.80;71.70;;;;;;5012970;23;20493;-71
2023/07/14 08:13:12;;;;;;;7.33;2.80;;;26.50;70.10;;;;;;4982048;28;20482;-72
2023/07/14 08:15:38;;;;;;;3.93;2.30;;;26.70;65.90;;;;;;4985603;28;20518;-72
2023/07/14 08:18:06;;;;;;;2.33;1.90;;;26.70;65.30;;;;;;4994670;28;20433;-72
2023/07/14 08:20:32;;;;;;;2.50;2.30;;;26.90;65.20;;;;;;4988216;28;20474;-71
2023/07/14 08:23:02;;;;;;;5.57;2.57;;;27.00;62.90;;;;;;4989683;28;20431;-71
2023/07/14 08:25:27;;;;;;;3.33;2.23;;;27.20;62.60;;;;;;5000334;28;20449;-71
2023/07/14 08:27:53;;;;;;;3.10;2.20;;;27.00;62.10;;;;;;4994041;28;20797;-71
2023/07/14 08:30:20;;;;;;;4.00;2.33;;;27.20;60.70;;;;;;4997221;28;20218;-70
2023/07/14 08:32:46;;;;;;;3.17;2.33;;;27.50;60.20;;;;;;4991992;28;20211;-71
2023/07/14 08:35:14;;;;;;;4.37;2.60;;;27.70;59.70;;;;;;4998935;28;20446;-71
2023/07/14 08:37:40;;;;;;;5.50;2.30;;;27.10;59.70;;;;;;4987778;28;20473;-71
2023/07/14 08:40:08;;;;;;;2.83;2.63;;;27.10;60.60;;;;;;5004075;28;20470;-74
2023/07/14 08:43:13;;;;;;;4.60;3.00;;;27.30;59.90;;;;;;4989616;28;20188;-74
2023/07/14 08:45:43;;;;;;;2.43;2.23;;;27.50;58.40;;;;;;4987069;28;20481;-74
2023/07/14 08:48:41;;;;;;;3.37;2.50;;;26.90;59.90;;;;;;4981493;28;20437;-74
2023/07/14 08:51:20;;;;;;;3.00;2.10;;;26.80;59.10;;;;;;4991996;28;20469;-74
2023/07/14 08:53:57;;;;;;;2.90;2.03;;;26.80;59.70;;;;;;4989744;28;20491;-74
2023/07/14 08:56:25;;;;;;;3.47;2.37;;;27.10;59.40;;;;;;4994419;28;20529;-74
2023/07/14 08:58:52;;;;;;;4.30;2.87;;;27.10;59.50;;;;;;4988185;28;20473;-74
2023/07/14 09:01:40;;;;;;;4.80;2.83;;;27.00;59.60;;;;;;4991837;28;21031;-74
2023/07/14 09:04:14;;;;;;;3.07;2.77;;;27.20;59.00;;;;;;4992616;28;20434;-74
2023/07/14 09:06:40;;;;;;;3.50;2.73;;;27.30;59.50;;;;;;5000795;28;20439;-73
2023/07/14 09:09:16;;;;;;;3.97;2.43;;;27.70;59.00;;;;;;4993839;28;20856;-73
2023/07/14 09:11:47;;;;;;;4.63;3.10;;;28.00;58.40;;;;;;5000339;28;20480;-73
2023/07/14 09:14:34;;;;;;;3.20;2.90;;;28.00;58.00;;;;;;4999712;28;20851;-73
2023/07/14 09:17:08;;;;;;;4.27;2.60;;;27.60;58.00;;;;;;4985950;28;20457;-73
2023/07/14 09:19:45;;;;;;;4.47;2.73;;;27.30;58.20;;;;;;4987174;28;20502;-73
2023/07/14 09:22:25;;;;;;;4.73;2.80;;;27.10;59.00;;;;;;4994214;28;20545;-73
2023/07/14 09:25:11;;;;;;;6.90;3.37;;;27.40;58.40;;;;;;5002981;28;20527;-72
2023/07/14 09:27:38;;;;;;;4.50;2.83;;;27.30;58.00;;;;;;4995227;28;20426;-72
2023/07/14 09:30:18;;;;;;;3.53;2.63;;;27.30;57.80;;;;;;4992824;28;20550;-73
2023/07/14 09:32:49;;;;;;;4.73;2.90;;;27.30;58.80;;;;;;4979509;28;20604;-72
2023/07/14 09:35:20;;;;;;;2.87;2.63;;;27.10;58.20;;;;;;4998586;28;20449;-72
2023/07/14 09:38:19;;;;;;;6.50;2.50;;;27.30;58.50;;;;;;5001314;28;21106;-73
2023/07/14 09:40:48;;;;;;;5.13;2.93;;;28.00;57.10;;;;;;4992051;28;20475;-75
2023/07/14 09:43:14;;;;;;;4.87;2.97;;;28.10;56.40;;;;;;4993381;28;20448;-74
2023/07/14 09:45:40;;;;;;;2.93;2.47;;;27.90;56.50;;;;;;4996933;28;20445;-73
2023/07/14 09:48:14;;;;;;;8.07;3.07;;;27.30;57.20;;;;;;4988878;28;20241;-73
2023/07/14 09:50:51;;;;;;;2.80;2.60;;;27.20;56.80;;;;;;4989575;28;20470;-73
2023/07/14 09:53:17;;;;;;;3.40;2.53;;;27.20;56.60;;;;;;5000397;28;20437;-73
2023/07/14 09:55:52;;;;;;;3.50;3.00;;;27.60;56.10;;;;;;4990345;28;20787;-74
2023/07/14 09:58:23;;;;;;;5.33;2.80;;;28.00;56.80;;;;;;4981237;28;20179;-74
2023/07/14 10:00:54;;;;;;;5.13;3.07;;;28.10;55.60;;;;;;4987102;28;20612;-73
2023/07/14 10:03:20;;;;;;;2.80;2.60;;;27.90;56.20;;;;;;4980020;28;20455;-74
2023/07/14 10:05:54;;;;;;;5.93;2.83;;;27.70;56.20;;;;;;4988247;28;20454;-73
2023/07/14 10:08:25;;;;;;;4.83;3.27;;;27.90;55.80;;;;;;4988053;28;20585;-76
2023/07/14 10:10:51;;;;;;;4.70;4.27;;;27.80;55.80;;;;;;4986733;28;20558;-72
2023/07/14 10:13:24;;;;;;;3.03;2.80;;;28.00;56.10;;;;;;4972614;28;20447;-72
2023/07/14 10:15:53;;;;;;;5.87;2.90;;;27.90;56.10;;;;;;4988208;28;20446;-72
2023/07/14 10:18:19;;;;;;;7.13;3.37;;;27.90;55.40;;;;;;4991165;28;21017;-72
2023/07/14 10:20:57;;;;;;;4.37;2.80;;;27.90;55.30;;;;;;4984156;28;20554;-72
2023/07/14 10:23:25;;;;;;;3.70;2.50;;;28.20;54.60;;;;;;4984261;28;20278;-72
2023/07/14 10:25:55;;;;;;;3.23;2.93;;;27.90;54.70;;;;;;4987737;28;20435;-70
2023/07/14 10:28:27;;;;;;;5.73;3.33;;;27.70;56.20;;;;;;4995960;28;20578;-71
2023/07/14 10:31:11;;;;;;;3.23;2.70;;;27.60;55.20;;;;;;4990223;28;20475;-73
2023/07/14 10:34:02;;;;;;;3.87;3.03;;;27.80;55.60;;;;;;4972907;28;20462;-71
2023/07/14 10:36:33;;;;;;;7.93;2.30;;;28.10;55.20;;;;;;4984160;28;20508;-71
2023/07/14 10:39:06;;;;;;;2.80;2.60;;;28.60;53.90;;;;;;4991883;28;20467;-70
2023/07/14 10:41:33;;;;;;;3.50;3.10;;;28.90;53.80;;;;;;4990535;28;20779;-71
2023/07/14 10:44:11;;;;;;;3.13;2.83;;;29.20;52.90;;;;;;4990051;28;20442;-70
2023/07/14 10:46:43;;;;;;;3.80;2.63;;;29.60;51.80;;;;;;4998167;28;20958;-69
2023/07/14 10:49:14;;;;;;;4.40;2.83;;;30.10;50.90;;;;;;4998114;28;20446;-76
2023/07/14 10:51:57;;;;;;;2.53;2.33;;;30.50;50.00;;;;;;4991339;28;20584;-67
2023/07/14 10:54:55;;;;;;;2.17;2.00;;;29.90;49.20;;;;;;4989441;28;20481;-71
2023/07/14 10:57:48;;;;;;;4.40;2.57;;;29.00;50.20;;;;;;4973940;28;20454;-70
2023/07/14 11:00:31;;;;;;;3.03;2.70;;;28.10;51.30;;;;;;4987310;28;20536;-69
2023/07/14 11:03:39;;;;;;;8.57;6.60;;;28.00;51.30;;;;;;4997339;28;20434;-68
2023/07/14 11:06:19;;;;;;;2.87;2.60;;;28.30;51.20;;;;;;4985066;28;20814;-68
2023/07/14 11:08:51;;;;;;;3.50;2.73;;;28.40;50.90;;;;;;4986512;28;20430;-71
2023/07/14 11:11:40;;;;;;;3.13;2.80;;;28.70;50.60;;;;;;4987580;28;21016;-71
2023/07/14 11:14:19;;;;;;;3.13;2.83;;;28.60;50.50;;;;;;4990382;28;20578;-71
2023/07/14 11:17:23;;;;;;;7.67;2.87;;;28.40;50.70;;;;;;4998196;28;20447;-72
2023/07/14 11:20:12;;;;;;;4.23;3.10;;;28.90;50.60;;;;;;4966609;28;20475;-71
2023/07/14 11:22:56;;;;;;;2.60;2.20;;;29.20;49.80;;;;;;4974118;28;20526;-71
2023/07/14 11:25:57;;;;;;;3.50;3.20;;;29.00;49.60;;;;;;4978156;28;20473;-70
2023/07/14 11:28:28;;;;;;;3.60;2.40;;;28.90;49.30;;;;;;4990535;28;20501;-71
2023/07/14 11:30:58;;;;;;;2.73;2.53;;;29.40;48.90;;;;;;4987825;28;20893;-72
2023/07/14 11:33:35;;;;;;;5.23;2.20;;;29.90;47.90;;;;;;4997863;28;20446;-71
2023/07/14 11:36:10;;;;;;;3.60;2.60;;;30.40;46.70;;;;;;4995314;28;20437;-71
2023/07/14 11:38:46;;;;;;;3.00;2.37;;;31.10;46.20;;;;;;4969639;28;20521;-71
2023/07/14 11:41:14;;;;;;;4.00;2.70;;;31.40;45.50;;;;;;4996521;28;20544;-72
2023/07/14 11:43:40;;;;;;;3.23;2.73;;;30.40;45.20;;;;;;4986606;28;20531;-71
2023/07/14 11:46:14;;;;;;;2.80;2.60;;;30.00;45.50;;;;;;4988593;28;20776;-71
2023/07/14 11:48:59;;;;;;;4.93;3.17;;;29.60;45.90;;;;;;4985764;28;20427;-71
2023/07/14 11:51:50;;;;;;;5.63;2.27;;;29.80;46.90;;;;;;4988810;28;20473;-72
2023/07/14 11:54:36;;;;;;;2.60;2.40;;;29.40;46.30;;;;;;4985610;28;21002;-71
2023/07/14 11:57:05;;;;;;;3.00;2.47;;;29.90;46.00;;;;;;4979308;28;20439;-71
2023/07/14 11:59:33;;;;;;;3.50;2.20;;;30.50;45.50;;;;;;4997798;28;20504;-71
2023/07/14 12:02:29;;;;;;;4.80;2.53;;;31.90;44.00;;;;;;5003965;28;20978;-71
2023/07/14 12:05:00;;;;;;;4.60;2.40;;;33.70;41.70;;;;;;4994568;28;20466;-71
2023/07/14 12:07:26;;;;;;;2.93;2.60;;;33.90;40.30;;;;;;5000672;28;20435;-72
2023/07/14 12:10:13;;;;;;;4.03;2.67;;;34.10;40.30;;;;;;5000231;28;20460;-71
2023/07/14 12:12:40;;;;;;;3.20;3.00;;;34.20;39.20;;;;;;4988668;28;20263;-72
2023/07/14 12:15:44;;;;;;;3.00;2.70;;;34.70;39.10;;;;;;4981494;28;20510;-72
2023/07/14 12:18:22;;;;;;;3.50;3.20;;;34.60;37.60;;;;;;4985933;28;20630;-72
2023/07/14 12:20:51;;;;;;;4.40;2.37;;;35.60;37.20;;;;;;4995769;28;20474;-73
2023/07/14 12:23:29;;;;;;;3.33;2.67;;;36.50;36.40;;;;;;4986486;28;20513;-70
2023/07/14 12:26:08;;;;;;;2.97;2.77;;;38.50;34.10;;;;;;4986760;28;20430;-68
2023/07/14 12:28:36;;;;;;;3.70;3.00;;;38.60;32.20;;;;;;4997313;28;20437;-68
2023/07/14 12:31:12;;;;;;;2.57;2.47;;;39.40;31.70;;;;;;4996440;28;21239;-68
2023/07/14 12:33:39;;;;;;;3.10;2.73;;;38.90;30.40;;;;;;5000092;28;20438;-68
2023/07/14 12:36:05;;;;;;;2.53;2.37;;;38.60;30.60;;;;;;4987298;28;20522;-69
2023/07/14 12:38:33;;;;;;;2.43;2.23;;;38.50;30.70;;;;;;4992808;28;20445;-69
2023/07/14 12:40:59;;;;;;;3.07;2.70;;;37.90;30.70;;;;;;4997988;28;20878;-66
2023/07/14 12:43:40;;;;;;;3.87;3.00;;;38.20;30.90;;;;;;5002406;28;20441;-66
2023/07/14 12:46:35;;;;;;;4.00;2.83;;;39.10;30.20;;;;;;5008178;28;20437;-67
2023/07/14 12:49:14;;;;;;;3.73;2.53;;;40.90;29.40;;;;;;4993357;28;20442;-66
2023/07/14 12:51:41;;;;;;;2.50;2.30;;;40.80;28.40;;;;;;4982116;28;20525;-68
2023/07/14 12:54:15;;;;;;;2.70;2.50;;;41.30;28.00;;;;;;4992186;28;20442;-66
2023/07/14 12:56:41;;;;;;;3.00;2.53;;;41.50;27.70;;;;;;4990147;28;20522;-67
2023/07/14 12:59:14;;;;;;;3.83;2.80;;;41.50;27.40;;;;;;4997456;28;20552;-69
2023/07/14 13:01:44;;;;;;;3.27;2.53;;;40.50;27.80;;;;;;4989835;28;20204;-70